sensor_id;sensor_type;location;lat;lon;timestamp;pressure;altitude;pressure_sealevel;temperature;humidity
53522;BME280;39398;48.382;9.802;2023-10-09T00:03:16;94524.22;;;16.48;42.43
53522;BME280;39398;48.382;9.802;2023-10-09T00:08:20;94521.03;;;16.46;42.99
53522;BME280;39398;48.382;9.802;2023-10-09T00:13:22;94522.63;;;16.47;41.90
53522;BME280;39398;48.382;9.802;2023-10-09T00:18:24;94521.03;;;16.46;42.60
53522;BME280;39398;48.382;9.802;2023-10-09T00:23:27;94515.34;;;16.49;42.29
53522;BME280;39398;48.382;9.802;2023-10-09T00:28:29;94512.56;;;16.44;42.85
53522;BME280;39398;48.382;9.802;2023-10-09T00:33:30;94502.59;;;16.34;43.06
53522;BME280;39398;48.382;9.802;2023-10-09T00:38:33;94500.22;;;16.33;42.65
53522;BME280;39398;48.382;9.802;2023-10-09T00:43:35;94487.97;;;16.27;42.94
53522;BME280;39398;48.382;9.802;2023-10-09T00:48:37;94485.00;;;16.23;42.75
53522;BME280;39398;48.382;9.802;2023-10-09T00:53:41;94490.84;;;16.25;42.88
53522;BME280;39398;48.382;9.802;2023-10-09T00:58:43;94484.78;;;16.25;43.02
53522;BME280;39398;48.382;9.802;2023-10-09T01:03:44;94484.19;;;16.23;43.14
53522;BME280;39398;48.382;9.802;2023-10-09T01:08:48;94464.09;;;16.17;42.92
53522;BME280;39398;48.382;9.802;2023-10-09T01:13:50;94460.09;;;16.14;43.05
53522;BME280;39398;48.382;9.802;2023-10-09T01:18:53;94471.81;;;16.12;43.09
53522;BME280;39398;48.382;9.802;2023-10-09T01:23:56;94463.50;;;16.15;42.60
53522;BME280;39398;48.382;9.802;2023-10-09T01:28:58;94455.63;;;16.15;42.42
53522;BME280;39398;48.382;9.802;2023-10-09T01:34:00;94453.22;;;16.13;42.20
53522;BME280;39398;48.382;9.802;2023-10-09T01:39:03;94447.19;;;16.13;42.28
53522;BME280;39398;48.382;9.802;2023-10-09T01:44:04;94449.22;;;16.11;42.03
53522;BME280;39398;48.382;9.802;2023-10-09T01:49:06;94445.25;;;16.08;42.84
53522;BME280;39398;48.382;9.802;2023-10-09T01:54:09;94442.25;;;16.04;42.62
53522;BME280;39398;48.382;9.802;2023-10-09T01:59:10;94436.94;;;15.93;43.31
53522;BME280;39398;48.382;9.802;2023-10-09T02:04:12;94438.56;;;15.76;43.56
53522;BME280;39398;48.382;9.802;2023-10-09T02:09:15;94434.28;;;15.81;43.38
53522;BME280;39398;48.382;9.802;2023-10-09T02:14:17;94428.16;;;15.87;42.85
53522;BME280;39398;48.382;9.802;2023-10-09T02:19:19;94431.19;;;16.02;41.87
53522;BME280;39398;48.382;9.802;2023-10-09T02:24:23;94430.16;;;16.03;41.97
53522;BME280;39398;48.382;9.802;2023-10-09T02:29:25;94418.66;;;16.04;41.97
53522;BME280;39398;48.382;9.802;2023-10-09T02:34:26;94414.78;;;16.07;41.86
53522;BME280;39398;48.382;9.802;2023-10-09T02:39:29;94410.47;;;16.13;41.58
53522;BME280;39398;48.382;9.802;2023-10-09T02:44:31;94401.56;;;16.14;41.39
53522;BME280;39398;48.382;9.802;2023-10-09T02:49:32;94404.63;;;16.11;41.50
53522;BME280;39398;48.382;9.802;2023-10-09T02:54:35;94399.97;;;16.13;41.42
53522;BME280;39398;48.382;9.802;2023-10-09T02:59:37;94395.16;;;16.10;41.63
53522;BME280;39398;48.382;9.802;2023-10-09T03:04:39;94386.75;;;16.08;41.89
53522;BME280;39398;48.382;9.802;2023-10-09T03:09:42;94393.00;;;16.07;42.09
53522;BME280;39398;48.382;9.802;2023-10-09T03:14:44;94391.84;;;16.02;41.93
53522;BME280;39398;48.382;9.802;2023-10-09T03:19:45;94394.91;;;15.99;42.18
53522;BME280;39398;48.382;9.802;2023-10-09T03:24:48;94392.13;;;15.94;42.36
53522;BME280;39398;48.382;9.802;2023-10-09T03:29:52;94401.94;;;15.87;42.77
53522;BME280;39398;48.382;9.802;2023-10-09T03:34:54;94400.75;;;15.83;42.85
53522;BME280;39398;48.382;9.802;2023-10-09T03:39:57;94403.25;;;15.78;43.88
53522;BME280;39398;48.382;9.802;2023-10-09T03:44:58;94393.72;;;15.65;44.12
53522;BME280;39398;48.382;9.802;2023-10-09T03:50:00;94392.69;;;15.48;44.87
53522;BME280;39398;48.382;9.802;2023-10-09T03:55:04;94391.31;;;15.27;45.71
53522;BME280;39398;48.382;9.802;2023-10-09T04:00:07;94382.50;;;15.22;46.24
53522;BME280;39398;48.382;9.802;2023-10-09T04:05:08;94386.94;;;15.21;46.10
53522;BME280;39398;48.382;9.802;2023-10-09T04:10:11;94382.16;;;15.18;45.79
53522;BME280;39398;48.382;9.802;2023-10-09T04:15:13;94377.75;;;15.12;45.74
53522;BME280;39398;48.382;9.802;2023-10-09T04:20:14;94376.59;;;15.08;46.18
53522;BME280;39398;48.382;9.802;2023-10-09T04:25:17;94376.25;;;15.05;46.03
53522;BME280;39398;48.382;9.802;2023-10-09T04:30:19;94371.66;;;15.00;46.31
53522;BME280;39398;48.382;9.802;2023-10-09T04:35:21;94375.13;;;14.94;46.48
53522;BME280;39398;48.382;9.802;2023-10-09T04:40:24;94378.41;;;14.89;46.32
53522;BME280;39398;48.382;9.802;2023-10-09T04:45:25;94373.19;;;14.89;46.58
53522;BME280;39398;48.382;9.802;2023-10-09T04:50:27;94380.50;;;14.81;47.12
53522;BME280;39398;48.382;9.802;2023-10-09T04:55:30;94383.69;;;14.83;46.74
53522;BME280;39398;48.382;9.802;2023-10-09T05:00:32;94385.88;;;14.86;47.61
53522;BME280;39398;48.382;9.802;2023-10-09T05:05:33;94378.47;;;14.83;47.65
53522;BME280;39398;48.382;9.802;2023-10-09T05:10:36;94378.69;;;14.81;48.05
53522;BME280;39398;48.382;9.802;2023-10-09T05:15:38;94381.50;;;14.80;48.00
53522;BME280;39398;48.382;9.802;2023-10-09T05:20:39;94383.53;;;14.78;48.13
53522;BME280;39398;48.382;9.802;2023-10-09T05:25:44;94381.13;;;14.76;48.04
53522;BME280;39398;48.382;9.802;2023-10-09T05:30:45;94385.72;;;14.81;47.74
53522;BME280;39398;48.382;9.802;2023-10-09T05:35:47;94384.72;;;14.82;47.78
53522;BME280;39398;48.382;9.802;2023-10-09T05:40:50;94390.97;;;14.81;47.96
53522;BME280;39398;48.382;9.802;2023-10-09T05:45:52;94388.94;;;14.83;47.99
53522;BME280;39398;48.382;9.802;2023-10-09T05:50:54;94392.34;;;14.83;48.20
53522;BME280;39398;48.382;9.802;2023-10-09T05:55:57;94390.91;;;14.87;47.85
53522;BME280;39398;48.382;9.802;2023-10-09T06:00:58;94398.97;;;14.86;48.60
53522;BME280;39398;48.382;9.802;2023-10-09T06:06:00;94392.13;;;14.85;47.92
53522;BME280;39398;48.382;9.802;2023-10-09T06:11:03;94389.09;;;14.88;48.33
53522;BME280;39398;48.382;9.802;2023-10-09T06:16:04;94398.56;;;14.89;48.14
53522;BME280;39398;48.382;9.802;2023-10-09T06:21:06;94418.63;;;14.95;47.91
53522;BME280;39398;48.382;9.802;2023-10-09T06:26:09;94417.78;;;15.01;47.39
53522;BME280;39398;48.382;9.802;2023-10-09T06:31:13;94421.41;;;15.00;47.81
53522;BME280;39398;48.382;9.802;2023-10-09T06:36:15;94410.94;;;15.00;48.72
53522;BME280;39398;48.382;9.802;2023-10-09T06:41:18;94427.06;;;14.97;48.68
53522;BME280;39398;48.382;9.802;2023-10-09T06:46:19;94426.22;;;15.03;48.41
53522;BME280;39398;48.382;9.802;2023-10-09T06:51:22;94428.97;;;15.08;47.96
53522;BME280;39398;48.382;9.802;2023-10-09T06:56:26;94428.28;;;15.19;48.39
53522;BME280;39398;48.382;9.802;2023-10-09T07:01:28;94427.97;;;15.27;48.45
53522;BME280;39398;48.382;9.802;2023-10-09T07:06:30;94432.34;;;15.33;47.92
53522;BME280;39398;48.382;9.802;2023-10-09T07:11:33;94429.75;;;15.33;48.40
53522;BME280;39398;48.382;9.802;2023-10-09T07:16:34;94432.56;;;15.32;48.38
53522;BME280;39398;48.382;9.802;2023-10-09T07:21:36;94437.00;;;15.31;49.49
53522;BME280;39398;48.382;9.802;2023-10-09T07:26:39;94431.28;;;15.23;49.67
53522;BME280;39398;48.382;9.802;2023-10-09T07:31:41;94435.69;;;15.22;49.73
53522;BME280;39398;48.382;9.802;2023-10-09T07:36:42;94435.25;;;15.25;49.88
53522;BME280;39398;48.382;9.802;2023-10-09T07:41:45;94438.16;;;15.17;50.21
53522;BME280;39398;48.382;9.802;2023-10-09T07:46:47;94439.19;;;15.34;50.33
53522;BME280;39398;48.382;9.802;2023-10-09T07:51:49;94452.59;;;15.45;49.06
53522;BME280;39398;48.382;9.802;2023-10-09T07:56:52;94452.16;;;15.48;49.31
53522;BME280;39398;48.382;9.802;2023-10-09T08:01:54;94449.97;;;15.45;50.42
53522;BME280;39398;48.382;9.802;2023-10-09T08:06:55;94452.47;;;15.40;51.51
53522;BME280;39398;48.382;9.802;2023-10-09T08:12:18;94447.78;;;15.42;52.39
53522;BME280;39398;48.382;9.802;2023-10-09T08:17:20;94446.75;;;15.43;52.55
53522;BME280;39398;48.382;9.802;2023-10-09T08:22:22;94446.69;;;15.56;52.42
53522;BME280;39398;48.382;9.802;2023-10-09T08:27:26;94457.06;;;15.62;52.71
53522;BME280;39398;48.382;9.802;2023-10-09T08:32:28;94460.88;;;15.66;53.52
53522;BME280;39398;48.382;9.802;2023-10-09T08:37:32;94462.16;;;15.76;53.32
53522;BME280;39398;48.382;9.802;2023-10-09T08:42:35;94462.97;;;15.76;53.67
53522;BME280;39398;48.382;9.802;2023-10-09T08:47:37;94460.28;;;15.83;53.66
53522;BME280;39398;48.382;9.802;2023-10-09T08:52:39;94458.44;;;15.83;54.32
53522;BME280;39398;48.382;9.802;2023-10-09T08:57:42;94463.97;;;15.93;54.01
53522;BME280;39398;48.382;9.802;2023-10-09T09:02:44;94468.78;;;15.96;54.63
53522;BME280;39398;48.382;9.802;2023-10-09T09:07:45;94467.03;;;16.09;54.58
53522;BME280;39398;48.382;9.802;2023-10-09T09:12:49;94464.97;;;16.11;54.60
53522;BME280;39398;48.382;9.802;2023-10-09T09:17:51;94465.25;;;16.21;54.63
53522;BME280;39398;48.382;9.802;2023-10-09T09:22:53;94462.16;;;16.42;54.24
53522;BME280;39398;48.382;9.802;2023-10-09T09:27:56;94464.00;;;16.53;54.16
53522;BME280;39398;48.382;9.802;2023-10-09T09:32:58;94467.47;;;16.65;54.07
53522;BME280;39398;48.382;9.802;2023-10-09T09:38:00;94465.44;;;16.67;53.64
53522;BME280;39398;48.382;9.802;2023-10-09T09:43:04;94469.78;;;16.73;54.13
53522;BME280;39398;48.382;9.802;2023-10-09T09:48:06;94466.81;;;16.82;54.15
53522;BME280;39398;48.382;9.802;2023-10-09T09:53:08;94464.31;;;16.87;54.20
53522;BME280;39398;48.382;9.802;2023-10-09T09:58:17;94474.75;;;17.05;54.09
53522;BME280;39398;48.382;9.802;2023-10-09T10:03:22;94479.44;;;17.15;54.35
53522;BME280;39398;48.382;9.802;2023-10-09T10:08:26;94490.06;;;17.31;54.82
53522;BME280;39398;48.382;9.802;2023-10-09T10:13:57;94488.47;;;17.30;54.85
53522;BME280;39398;48.382;9.802;2023-10-09T10:19:00;94499.09;;;17.35;54.61
53522;BME280;39398;48.382;9.802;2023-10-09T10:24:02;94489.16;;;17.49;53.95
53522;BME280;39398;48.382;9.802;2023-10-09T10:29:19;94492.03;;;17.71;53.12
53522;BME280;39398;48.382;9.802;2023-10-09T10:34:20;94492.78;;;17.95;53.24
53522;BME280;39398;48.382;9.802;2023-10-09T10:39:22;94489.00;;;18.02;53.04
53522;BME280;39398;48.382;9.802;2023-10-09T10:44:29;94487.19;;;18.31;52.65
53522;BME280;39398;48.382;9.802;2023-10-09T10:49:34;94491.53;;;18.37;51.81
53522;BME280;39398;48.382;9.802;2023-10-09T10:54:35;94490.63;;;18.60;51.92
53522;BME280;39398;48.382;9.802;2023-10-09T10:59:40;94488.69;;;18.56;52.01
53522;BME280;39398;48.382;9.802;2023-10-09T11:04:45;94487.97;;;18.72;51.78
53522;BME280;39398;48.382;9.802;2023-10-09T11:09:48;94486.97;;;18.61;52.38
53522;BME280;39398;48.382;9.802;2023-10-09T11:14:55;94479.34;;;18.76;52.67
53522;BME280;39398;48.382;9.802;2023-10-09T11:19:56;94480.09;;;19.05;51.06
53522;BME280;39398;48.382;9.802;2023-10-09T11:24:58;94481.50;;;19.46;49.18
53522;BME280;39398;48.382;9.802;2023-10-09T11:30:01;94484.31;;;19.57;48.31
53522;BME280;39398;48.382;9.802;2023-10-09T11:35:11;94464.59;;;19.81;47.88
53522;BME280;39398;48.382;9.802;2023-10-09T11:40:30;94474.44;;;20.07;47.87
53522;BME280;39398;48.382;9.802;2023-10-09T11:45:33;94456.50;;;20.09;46.45
53522;BME280;39398;48.382;9.802;2023-10-09T11:50:42;94459.91;;;20.32;45.10
53522;BME280;39398;48.382;9.802;2023-10-09T11:55:44;94470.09;;;20.45;44.35
53522;BME280;39398;48.382;9.802;2023-10-09T12:00:49;94467.13;;;20.63;43.86
53522;BME280;39398;48.382;9.802;2023-10-09T12:05:50;94474.69;;;20.81;43.94
53522;BME280;39398;48.382;9.802;2023-10-09T12:10:53;94463.50;;;21.01;39.60
53522;BME280;39398;48.382;9.802;2023-10-09T12:15:56;94466.41;;;21.32;39.01
53522;BME280;39398;48.382;9.802;2023-10-09T12:20:58;94459.91;;;21.49;37.98
53522;BME280;39398;48.382;9.802;2023-10-09T12:26:00;94455.22;;;21.56;36.80
53522;BME280;39398;48.382;9.802;2023-10-09T12:31:03;94458.16;;;21.65;37.74
53522;BME280;39398;48.382;9.802;2023-10-09T12:36:05;94454.69;;;21.59;35.59
53522;BME280;39398;48.382;9.802;2023-10-09T12:41:07;94437.41;;;21.42;34.41
53522;BME280;39398;48.382;9.802;2023-10-09T12:46:10;94433.38;;;21.34;35.00
53522;BME280;39398;48.382;9.802;2023-10-09T12:51:12;94420.63;;;21.26;36.61
53522;BME280;39398;48.382;9.802;2023-10-09T12:56:14;94444.41;;;21.21;35.60
53522;BME280;39398;48.382;9.802;2023-10-09T13:01:17;94440.06;;;21.10;34.08
53522;BME280;39398;48.382;9.802;2023-10-09T13:06:18;94438.84;;;21.22;33.09
53522;BME280;39398;48.382;9.802;2023-10-09T13:11:20;94418.00;;;21.26;34.12
53522;BME280;39398;48.382;9.802;2023-10-09T13:16:27;94402.41;;;21.35;34.96
53522;BME280;39398;48.382;9.802;2023-10-09T13:21:29;94376.72;;;21.25;34.69
53522;BME280;39398;48.382;9.802;2023-10-09T13:26:30;94362.78;;;21.03;36.65
53522;BME280;39398;48.382;9.802;2023-10-09T13:31:37;94358.00;;;21.00;42.35
53522;BME280;39398;48.382;9.802;2023-10-09T13:36:39;94361.69;;;20.94;42.14
53522;BME280;39398;48.382;9.802;2023-10-09T13:41:40;94369.63;;;20.94;43.08
53522;BME280;39398;48.382;9.802;2023-10-09T13:46:43;94385.28;;;21.05;42.89
53522;BME280;39398;48.382;9.802;2023-10-09T13:51:45;94390.94;;;21.19;42.10
53522;BME280;39398;48.382;9.802;2023-10-09T13:56:47;94401.03;;;21.22;43.38
53522;BME280;39398;48.382;9.802;2023-10-09T14:01:51;94405.56;;;21.27;44.92
53522;BME280;39398;48.382;9.802;2023-10-09T14:06:52;94399.44;;;21.21;45.87
53522;BME280;39398;48.382;9.802;2023-10-09T14:11:55;94397.63;;;21.27;45.99
53522;BME280;39398;48.382;9.802;2023-10-09T14:16:58;94390.50;;;21.27;45.36
53522;BME280;39398;48.382;9.802;2023-10-09T14:22:00;94396.28;;;21.24;46.47
53522;BME280;39398;48.382;9.802;2023-10-09T14:27:01;94396.38;;;21.39;46.00
53522;BME280;39398;48.382;9.802;2023-10-09T14:32:04;94385.84;;;21.49;42.82
53522;BME280;39398;48.382;9.802;2023-10-09T14:37:06;94383.59;;;21.83;42.73
53522;BME280;39398;48.382;9.802;2023-10-09T14:42:08;94375.91;;;21.82;40.16
53522;BME280;39398;48.382;9.802;2023-10-09T14:47:11;94370.13;;;21.90;39.61
53522;BME280;39398;48.382;9.802;2023-10-09T14:52:13;94374.69;;;22.00;42.32
53522;BME280;39398;48.382;9.802;2023-10-09T14:57:15;94368.03;;;21.92;44.39
53522;BME280;39398;48.382;9.802;2023-10-09T15:02:18;94353.72;;;21.88;45.07
53522;BME280;39398;48.382;9.802;2023-10-09T15:07:20;94341.19;;;21.63;46.38
53522;BME280;39398;48.382;9.802;2023-10-09T15:12:40;94349.78;;;21.33;48.74
53522;BME280;39398;48.382;9.802;2023-10-09T15:17:43;94347.66;;;21.35;48.51
53522;BME280;39398;48.382;9.802;2023-10-09T15:22:45;94349.84;;;21.43;47.30
53522;BME280;39398;48.382;9.802;2023-10-09T15:27:47;94360.13;;;21.40;48.06
53522;BME280;39398;48.382;9.802;2023-10-09T15:32:50;94358.22;;;21.25;49.11
53522;BME280;39398;48.382;9.802;2023-10-09T15:37:52;94341.13;;;21.06;49.66
53522;BME280;39398;48.382;9.802;2023-10-09T15:42:53;94352.28;;;21.13;49.06
53522;BME280;39398;48.382;9.802;2023-10-09T15:47:56;94349.56;;;21.03;47.86
53522;BME280;39398;48.382;9.802;2023-10-09T15:52:58;94343.69;;;20.90;47.33
53522;BME280;39398;48.382;9.802;2023-10-09T15:58:00;94343.59;;;20.80;47.39
53522;BME280;39398;48.382;9.802;2023-10-09T16:03:04;94350.91;;;20.68;48.07
53522;BME280;39398;48.382;9.802;2023-10-09T16:08:06;94349.75;;;20.54;48.26
53522;BME280;39398;48.382;9.802;2023-10-09T16:13:08;94340.81;;;20.33;47.77
53522;BME280;39398;48.382;9.802;2023-10-09T16:18:11;94343.72;;;20.32;47.46
53522;BME280;39398;48.382;9.802;2023-10-09T16:23:12;94336.75;;;20.20;46.67
53522;BME280;39398;48.382;9.802;2023-10-09T16:28:14;94338.75;;;20.08;46.78
53522;BME280;39398;48.382;9.802;2023-10-09T16:33:17;94335.50;;;20.01;46.40
53522;BME280;39398;48.382;9.802;2023-10-09T16:38:19;94347.50;;;19.87;45.70
53522;BME280;39398;48.382;9.802;2023-10-09T16:43:21;94348.53;;;19.86;45.16
53522;BME280;39398;48.382;9.802;2023-10-09T16:48:25;94356.84;;;19.73;45.89
53522;BME280;39398;48.382;9.802;2023-10-09T16:53:27;94361.00;;;19.69;44.85
53522;BME280;39398;48.382;9.802;2023-10-09T16:58:29;94361.44;;;19.61;44.06
53522;BME280;39398;48.382;9.802;2023-10-09T17:03:31;94361.41;;;19.56;42.89
53522;BME280;39398;48.382;9.802;2023-10-09T17:08:33;94372.00;;;19.44;44.59
53522;BME280;39398;48.382;9.802;2023-10-09T17:13:35;94368.09;;;19.46;40.62
53522;BME280;39398;48.382;9.802;2023-10-09T17:18:38;94367.81;;;19.43;39.99
53522;BME280;39398;48.382;9.802;2023-10-09T17:23:39;94364.22;;;19.32;39.08
53522;BME280;39398;48.382;9.802;2023-10-09T17:28:41;94365.25;;;19.31;39.06
53522;BME280;39398;48.382;9.802;2023-10-09T17:33:44;94368.16;;;19.13;39.22
53522;BME280;39398;48.382;9.802;2023-10-09T17:38:46;94357.81;;;19.06;38.54
53522;BME280;39398;48.382;9.802;2023-10-09T17:43:48;94362.34;;;19.11;38.15
53522;BME280;39398;48.382;9.802;2023-10-09T17:48:51;94372.66;;;18.96;39.71
53522;BME280;39398;48.382;9.802;2023-10-09T17:53:54;94363.44;;;18.76;39.21
53522;BME280;39398;48.382;9.802;2023-10-09T17:58:55;94350.19;;;18.71;37.56
53522;BME280;39398;48.382;9.802;2023-10-09T18:03:58;94358.94;;;18.77;39.63
53522;BME280;39398;48.382;9.802;2023-10-09T18:09:01;94381.63;;;18.61;41.25
53522;BME280;39398;48.382;9.802;2023-10-09T18:14:03;94379.03;;;18.49;38.84
53522;BME280;39398;48.382;9.802;2023-10-09T18:19:06;94381.91;;;18.48;38.60
53522;BME280;39398;48.382;9.802;2023-10-09T18:24:08;94382.69;;;18.48;37.78
53522;BME280;39398;48.382;9.802;2023-10-09T18:29:09;94387.00;;;18.38;38.05
53522;BME280;39398;48.382;9.802;2023-10-09T18:34:12;94379.50;;;18.30;38.14
53522;BME280;39398;48.382;9.802;2023-10-09T18:39:14;94381.38;;;18.18;38.61
53522;BME280;39398;48.382;9.802;2023-10-09T18:44:16;94370.97;;;18.23;39.05
53522;BME280;39398;48.382;9.802;2023-10-09T18:49:19;94374.72;;;18.43;38.31
53522;BME280;39398;48.382;9.802;2023-10-09T18:54:20;94360.69;;;18.38;39.90
53522;BME280;39398;48.382;9.802;2023-10-09T18:59:22;94357.81;;;18.39;39.14
53522;BME280;39398;48.382;9.802;2023-10-09T19:04:25;94361.81;;;18.42;39.78
53522;BME280;39398;48.382;9.802;2023-10-09T19:09:27;94357.16;;;18.49;39.88
53522;BME280;39398;48.382;9.802;2023-10-09T19:14:28;94355.19;;;18.56;40.72
53522;BME280;39398;48.382;9.802;2023-10-09T19:19:31;94354.63;;;18.54;40.87
53522;BME280;39398;48.382;9.802;2023-10-09T19:24:33;94360.38;;;18.51;41.57
53522;BME280;39398;48.382;9.802;2023-10-09T19:29:34;94356.38;;;18.48;41.54
53522;BME280;39398;48.382;9.802;2023-10-09T19:34:37;94354.44;;;18.44;41.67
53522;BME280;39398;48.382;9.802;2023-10-09T19:39:39;94364.50;;;18.47;41.50
53522;BME280;39398;48.382;9.802;2023-10-09T19:44:41;94362.91;;;18.46;41.34
53522;BME280;39398;48.382;9.802;2023-10-09T19:49:44;94358.78;;;18.50;41.03
53522;BME280;39398;48.382;9.802;2023-10-09T19:54:48;94384.53;;;18.48;41.63
53522;BME280;39398;48.382;9.802;2023-10-09T19:59:49;94376.72;;;18.53;41.91
53522;BME280;39398;48.382;9.802;2023-10-09T20:04:52;94378.91;;;18.56;42.07
53522;BME280;39398;48.382;9.802;2023-10-09T20:09:54;94382.56;;;18.55;42.59
53522;BME280;39398;48.382;9.802;2023-10-09T20:14:56;94384.53;;;18.48;43.28
53522;BME280;39398;48.382;9.802;2023-10-09T20:19:59;94380.94;;;18.37;44.11
53522;BME280;39398;48.382;9.802;2023-10-09T20:25:00;94383.09;;;18.24;45.18
53522;BME280;39398;48.382;9.802;2023-10-09T20:30:03;94388.25;;;18.19;45.47
53522;BME280;39398;48.382;9.802;2023-10-09T20:35:06;94393.88;;;18.10;46.26
53522;BME280;39398;48.382;9.802;2023-10-09T20:40:09;94398.72;;;18.02;46.81
53522;BME280;39398;48.382;9.802;2023-10-09T20:45:10;94401.25;;;17.97;47.40
53522;BME280;39398;48.382;9.802;2023-10-09T20:50:14;94401.06;;;17.87;48.21
53522;BME280;39398;48.382;9.802;2023-10-09T20:55:16;94407.41;;;17.74;49.18
53522;BME280;39398;48.382;9.802;2023-10-09T21:00:18;94404.75;;;17.62;50.09
53522;BME280;39398;48.382;9.802;2023-10-09T21:05:22;94405.00;;;17.61;49.70
53522;BME280;39398;48.382;9.802;2023-10-09T21:10:24;94409.72;;;17.59;49.36
53522;BME280;39398;48.382;9.802;2023-10-09T21:15:25;94413.38;;;17.58;48.80
53522;BME280;39398;48.382;9.802;2023-10-09T21:20:28;94418.63;;;17.58;48.38
53522;BME280;39398;48.382;9.802;2023-10-09T21:25:30;94406.16;;;17.53;48.63
53522;BME280;39398;48.382;9.802;2023-10-09T21:30:32;94416.91;;;17.52;48.32
53522;BME280;39398;48.382;9.802;2023-10-09T21:35:35;94420.09;;;17.54;48.72
53522;BME280;39398;48.382;9.802;2023-10-09T21:40:37;94419.53;;;17.52;48.62
53522;BME280;39398;48.382;9.802;2023-10-09T21:45:39;94426.75;;;17.44;49.11
53522;BME280;39398;48.382;9.802;2023-10-09T21:50:43;94433.16;;;17.37;49.58
53522;BME280;39398;48.382;9.802;2023-10-09T21:55:44;94426.88;;;17.26;50.39
53522;BME280;39398;48.382;9.802;2023-10-09T22:00:46;94428.81;;;17.19;51.25
53522;BME280;39398;48.382;9.802;2023-10-09T22:05:49;94426.66;;;17.16;50.70
53522;BME280;39398;48.382;9.802;2023-10-09T22:10:51;94425.41;;;17.07;50.82
53522;BME280;39398;48.382;9.802;2023-10-09T22:15:52;94428.50;;;17.04;51.33
53522;BME280;39398;48.382;9.802;2023-10-09T22:20:55;94426.19;;;16.96;50.76
53522;BME280;39398;48.382;9.802;2023-10-09T22:25:57;94429.84;;;16.95;50.00
53522;BME280;39398;48.382;9.802;2023-10-09T22:30:59;94432.38;;;16.90;49.83
53522;BME280;39398;48.382;9.802;2023-10-09T22:36:03;94418.66;;;16.88;50.27
53522;BME280;39398;48.382;9.802;2023-10-09T22:41:04;94424.44;;;16.78;50.65
53522;BME280;39398;48.382;9.802;2023-10-09T22:46:06;94424.44;;;16.78;50.90
53522;BME280;39398;48.382;9.802;2023-10-09T22:51:09;94418.88;;;16.74;50.93
53522;BME280;39398;48.382;9.802;2023-10-09T22:56:10;94431.88;;;16.69;51.33
53522;BME280;39398;48.382;9.802;2023-10-09T23:01:12;94422.84;;;16.65;51.39
53522;BME280;39398;48.382;9.802;2023-10-09T23:06:15;94420.22;;;16.65;50.87
53522;BME280;39398;48.382;9.802;2023-10-09T23:11:17;94428.31;;;16.64;50.78
53522;BME280;39398;48.382;9.802;2023-10-09T23:16:19;94428.09;;;16.65;50.47
53522;BME280;39398;48.382;9.802;2023-10-09T23:21:22;94420.22;;;16.65;49.80
53522;BME280;39398;48.382;9.802;2023-10-09T23:26:23;94435.88;;;16.72;49.22
53522;BME280;39398;48.382;9.802;2023-10-09T23:31:25;94432.56;;;16.77;48.79
53522;BME280;39398;48.382;9.802;2023-10-09T23:36:28;94434.06;;;16.84;48.48
53522;BME280;39398;48.382;9.802;2023-10-09T23:41:29;94436.00;;;16.89;48.29
53522;BME280;39398;48.382;9.802;2023-10-09T23:46:31;94437.63;;;16.90;48.35
53522;BME280;39398;48.382;9.802;2023-10-09T23:51:36;94434.41;;;16.88;48.52
53522;BME280;39398;48.382;9.802;2023-10-09T23:56:37;94435.09;;;16.95;48.02
